Home   Weather   Qatar   Doha   Past weeks
Flag for Qatar

Past Weather in Doha, Qatar — Yesterday and Last 2 Weeks

Currently: 104 °F. Sunny. (Weather station: Doha International Airport, Qatar). See more current weather

Past Weather in Doha — Graph

°F

Doha Temperature Yesterday

Maximum temperature yesterday: 115 °F (at 11:30 am)
Minimum temperature yesterday: 93 °F (at 3:00 am)
Average temperature yesterday: 101 °F

High & Low Weather Summary for the Past Weeks

 TemperatureHumidityPressure
High115 °F (Jul 22, 1:00 pm)84% (Jul 21, 5:00 am)29.53 "Hg (Jul 21, 5:00 am)
Low91 °F (Jul 20, 1:00 am)14% (Aug 2, 11:30 am)29.27 "Hg (Jul 27, 3:00 pm)
Average100 °F53%29.41 "Hg
* Reported Jul 19 3:30 pm — Aug 3 3:30 pm, Doha. Weather by CustomWeather, © 2021

Note: Actual official high and low records may vary slightly from our data, if they occured in-between our weather recording intervals... More about our weather records

Doha Weather History for the Previous 24 Hours

Scroll right to see more
 ConditionsComfort  
Time TempWeatherWind HumidityBarometerVisibility
3:30 pm
Tue, Aug 3
104 °FSunny.9 mph43%29.47 "Hg10 mi
3:00 pm106 °FPassing clouds.7 mph38%29.47 "HgN/A
2:30 pm108 °FPassing clouds.9 mph30%29.50 "HgN/A
2:00 pm108 °FPassing clouds.9 mph23%29.50 "HgN/A
1:30 pm106 °FSunny.10 mph28%29.50 "Hg10 mi
1:00 pm102 °FSunny.12 mph48%29.50 "Hg10 mi
12:30 pm104 °FPassing clouds.13 mph35%29.50 "HgN/A
12:00 pm102 °FPassing clouds.10 mph57%29.53 "HgN/A
11:30 am100 °FClear.12 mph60%29.53 "Hg6 mi
11:00 am100 °FClear.15 mph64%29.53 "Hg6 mi
10:30 am104 °FClear.8 mph45%29.50 "Hg6 mi
10:00 am104 °FClear.7 mph45%29.50 "Hg5 mi
9:30 am108 °FClear.3 mph32%29.50 "Hg5 mi
9:00 am109 °FClear.1 mph27%29.50 "Hg6 mi
8:30 am106 °FPassing clouds.3 mph28%29.53 "HgN/A
8:00 am104 °FSunny.3 mph28%29.50 "Hg10 mi
7:30 am104 °FClear.3 mph35%29.50 "Hg4 mi
7:00 am102 °FClear.3 mph40%29.50 "Hg4 mi
6:30 am100 °FClear.1 mph45%29.50 "Hg4 mi
6:00 am97 °FClear.2 mph50%29.47 "Hg4 mi
5:30 am93 °FClear.1 mph59%29.47 "Hg4 mi
5:00 am95 °FClear.5 mph56%29.47 "Hg4 mi
4:30 am91 °FClear.1 mph56%29.45 "Hg10 mi
4:00 am97 °FClear.2 mph50%29.45 "Hg10 mi
3:30 am97 °FClear.2 mph47%29.45 "Hg10 mi
2:30 am97 °FClear.2 mph47%29.42 "Hg10 mi
2:00 am97 °FClear.2 mph47%29.42 "Hg10 mi
1:30 am99 °FPassing clouds.3 mph50%29.42 "HgN/A
1:00 am99 °FClear.2 mph44%29.45 "Hg10 mi
12:30 am97 °FClear.3 mph63%29.45 "Hg10 mi
12:00 am95 °FClear.2 mph71%29.45 "Hg10 mi
11:30 pm
Mon, Aug 2
95 °FClear.2 mph75%29.45 "Hg10 mi
11:00 pm95 °FClear.1 mph75%29.45 "Hg10 mi
10:30 pm95 °FClear.3 mph75%29.45 "Hg10 mi
10:00 pm95 °FClear.2 mph71%29.45 "Hg10 mi
9:30 pm97 °FClear.5 mph63%29.47 "Hg10 mi
9:00 pm97 °FClear.6 mph63%29.45 "Hg10 mi
8:30 pm97 °FClear.5 mph63%29.45 "Hg10 mi
8:00 pm97 °FClear.5 mph67%29.45 "Hg10 mi
7:30 pm97 °FClear.7 mph67%29.45 "Hg10 mi
7:00 pm99 °FClear.8 mph64%29.45 "Hg10 mi
6:30 pm100 °FClear.8 mph57%29.42 "Hg10 mi
6:00 pm100 °FSunny.8 mph57%29.42 "Hg10 mi
5:30 pm102 °FSunny.9 mph48%29.42 "Hg10 mi
5:00 pm102 °FSunny.9 mph51%29.42 "Hg10 mi
4:30 pm102 °FSunny.9 mph54%29.42 "Hg10 mi
4:00 pm102 °FPassing clouds.9 mph57%29.42 "HgN/A
Weather by CustomWeather, © 2021

See weather overview